Time,TemperatureF,DewpointF,PressureIn,WindDirection,WindDirectionDegrees,WindSpeedMPH,WindSpeedGustMPH,Humidity,HourlyPrecipIn,Conditions,Clouds,dailyrainin,SoftwareType,DateUTC
2013-07-18 00:10:00,74.6,66.1,30.07,SSE,160,2.0,2.0,75,0.00,,,0.01,Wunderground v.1.15,2013-07-18 05:10:00,
2013-07-18 00:20:00,74.5,66.4,30.07,SE,143,2.0,2.0,76,0.00,,,0.01,Wunderground v.1.15,2013-07-18 05:20:00,
2013-07-18 00:30:00,74.5,66.4,30.07,ESE,122,1.0,1.0,76,0.00,,,0.01,Wunderground v.1.15,2013-07-18 05:30:00,
2013-07-18 00:40:00,74.5,66.4,30.07,SE,138,0.0,1.0,76,0.00,,,0.01,Wunderground v.1.15,2013-07-18 05:40:00,
2013-07-18 00:50:00,74.3,66.2,30.07,SE,141,1.0,1.0,76,0.00,,,0.01,Wunderground v.1.15,2013-07-18 05:50:00,
2013-07-18 01:00:00,74.0,66.3,30.08,SE,132,2.0,2.0,77,0.00,,,0.01,Wunderground v.1.15,2013-07-18 06:00:00,
2013-07-18 01:20:00,73.4,66.1,30.08,SSE,166,2.0,2.0,78,0.00,,,0.01,Wunderground v.1.15,2013-07-18 06:20:00,
2013-07-18 01:30:00,73.1,66.2,30.08,SSE,155,2.0,2.0,79,0.00,,,0.01,Wunderground v.1.15,2013-07-18 06:30:00,
2013-07-18 01:40:00,72.9,66.4,30.08,SSE,167,2.0,2.0,80,0.00,,,0.01,Wunderground v.1.15,2013-07-18 06:40:00,
2013-07-18 01:50:00,72.6,66.1,30.08,SSW,204,1.0,1.0,80,0.00,,,0.01,Wunderground v.1.15,2013-07-18 06:50:00,
2013-07-18 02:00:00,72.4,66.2,30.08,SSE,150,1.0,1.0,81,0.00,,,0.01,Wunderground v.1.15,2013-07-18 07:00:00,
2013-07-18 02:10:00,72.1,65.9,30.08,SSE,150,1.0,1.0,81,0.00,,,0.01,Wunderground v.1.15,2013-07-18 07:10:00,
2013-07-18 02:20:00,71.8,66.0,30.08,SSE,150,0.0,0.0,82,0.00,,,0.00,Wunderground v.1.15,2013-07-18 07:20:00,
2013-07-18 02:30:00,71.6,66.2,30.08,SSE,150,0.0,0.0,83,0.00,,,0.00,Wunderground v.1.15,2013-07-18 07:30:00,
2013-07-18 02:40:00,71.4,66.0,30.07,SSE,148,0.0,0.0,83,0.00,,,0.00,Wunderground v.1.15,2013-07-18 07:40:00,
2013-07-18 02:50:00,71.2,66.1,30.07,SSE,148,0.0,0.0,84,0.00,,,0.00,Wunderground v.1.15,2013-07-18 07:50:00,
2013-07-18 03:00:00,70.9,66.2,30.07,SSE,148,0.0,0.0,85,0.00,,,0.00,Wunderground v.1.15,2013-07-18 08:00:00,
2013-07-18 03:10:00,70.8,66.1,30.07,SE,143,0.0,0.0,85,0.00,,,0.00,Wunderground v.1.15,2013-07-18 08:10:00,
2013-07-18 03:20:00,70.8,66.4,30.07,SE,143,0.0,0.0,86,0.00,,,0.00,Wunderground v.1.15,2013-07-18 08:20:00,
2013-07-18 03:30:00,70.4,66.0,30.06,SE,144,0.0,0.0,86,0.00,,,0.00,Wunderground v.1.15,2013-07-18 08:30:00,
2013-07-18 03:40:00,70.2,66.1,30.06,SSE,160,0.0,0.0,87,0.00,,,0.00,Wunderground v.1.15,2013-07-18 08:40:00,
2013-07-18 03:50:00,70.2,66.1,30.06,SE,136,0.0,0.0,87,0.00,,,0.00,Wunderground v.1.15,2013-07-18 08:50:00,
2013-07-18 04:00:00,70.4,66.7,30.06,SE,136,0.0,0.0,88,0.00,,,0.00,Wunderground v.1.15,2013-07-18 09:00:00,
2013-07-18 04:10:00,70.5,66.4,30.06,SE,129,0.0,0.0,87,0.00,,,0.00,Wunderground v.1.15,2013-07-18 09:10:00,
2013-07-18 04:20:00,70.3,66.2,30.05,SE,127,0.0,0.0,87,0.00,,,0.00,Wunderground v.1.15,2013-07-18 09:20:00,
2013-07-18 04:30:00,70.2,66.5,30.05,SE,127,0.0,0.0,88,0.00,,,0.00,Wunderground v.1.15,2013-07-18 09:30:00,
2013-07-18 04:40:00,69.9,66.2,30.05,SE,127,0.0,0.0,88,0.00,,,0.00,Wunderground v.1.15,2013-07-18 09:40:00,
2013-07-18 04:50:00,69.5,66.1,30.05,East,90,0.0,0.0,89,0.00,,,0.00,Wunderground v.1.15,2013-07-18 09:50:00,
2013-07-18 05:00:00,69.3,65.9,30.05,ESE,117,0.0,0.0,89,0.00,,,0.00,Wunderground v.1.15,2013-07-18 10:00:00,
2013-07-18 05:10:00,69.3,65.9,30.06,ESE,103,0.0,0.0,89,0.00,,,0.00,Wunderground v.1.15,2013-07-18 10:10:00,
2013-07-18 05:20:00,69.0,65.9,30.05,ESE,105,0.0,0.0,90,0.00,,,0.00,Wunderground v.1.15,2013-07-18 10:20:00,
2013-07-18 05:30:00,68.9,65.8,30.05,ESE,118,0.0,0.0,90,0.00,,,0.00,Wunderground v.1.15,2013-07-18 10:30:00,
2013-07-18 05:40:00,68.9,65.8,30.05,SE,136,0.0,0.0,90,0.00,,,0.00,Wunderground v.1.15,2013-07-18 10:40:00,
2013-07-18 05:50:00,68.8,65.7,30.06,SE,129,0.0,0.0,90,0.00,,,0.00,Wunderground v.1.15,2013-07-18 10:50:00,
2013-07-18 06:00:00,68.6,65.5,30.05,SE,129,0.0,0.0,90,0.00,,,0.00,Wunderground v.1.15,2013-07-18 11:00:00,
2013-07-18 06:10:00,68.4,65.4,30.05,SE,142,0.0,0.0,90,0.00,,,0.00,Wunderground v.1.15,2013-07-18 11:10:00,
2013-07-18 06:20:00,68.2,65.5,30.05,ESE,118,0.0,0.0,91,0.00,,,0.00,Wunderground v.1.15,2013-07-18 11:20:00,
2013-07-18 06:30:00,68.0,65.3,30.05,SE,125,0.0,0.0,91,0.00,,,0.00,Wunderground v.1.15,2013-07-18 11:30:00,
2013-07-18 06:40:00,68.0,65.3,30.06,SE,128,1.0,2.0,91,0.00,,,0.00,Wunderground v.1.15,2013-07-18 11:40:00,
2013-07-18 06:50:00,68.2,65.5,30.05,SSE,153,2.0,3.0,91,0.00,,,0.00,Wunderground v.1.15,2013-07-18 11:50:00,
2013-07-18 07:00:00,68.3,65.6,30.05,SE,145,3.0,3.0,91,0.00,,,0.00,Wunderground v.1.15,2013-07-18 12:00:00,
2013-07-18 07:10:00,68.8,66.1,30.05,SE,145,3.0,4.0,91,0.00,,,0.00,Wunderground v.1.15,2013-07-18 12:10:00,
2013-07-18 07:20:00,69.4,66.7,30.05,SE,139,4.0,5.0,91,0.00,,,0.00,Wunderground v.1.15,2013-07-18 12:20:00,
2013-07-18 07:30:00,70.0,66.9,30.05,South,170,4.0,4.0,90,0.00,,,0.00,Wunderground v.1.15,2013-07-18 12:30:00,
2013-07-18 07:40:00,71.2,67.8,30.05,South,184,4.0,5.0,89,0.00,,,0.00,Wunderground v.1.15,2013-07-18 12:40:00,
2013-07-18 07:50:00,72.2,68.1,30.04,SSE,158,5.0,7.0,87,0.00,,,0.00,Wunderground v.1.15,2013-07-18 12:50:00,
2013-07-18 08:10:00,74.0,69.2,30.04,South,169,6.0,6.0,85,0.00,,,0.00,Wunderground v.1.15,2013-07-18 13:10:00,
2013-07-18 08:20:00,75.2,69.0,30.04,SSE,166,8.0,12.0,81,0.00,,,0.00,Wunderground v.1.15,2013-07-18 13:20:00,
2013-07-18 08:30:00,76.2,69.2,30.04,SSW,207,9.0,9.0,79,0.00,,,0.00,Wunderground v.1.15,2013-07-18 13:30:00,
2013-07-18 08:40:00,77.0,69.2,30.03,SSW,201,8.0,9.0,77,0.00,,,0.00,Wunderground v.1.15,2013-07-18 13:40:00,
2013-07-18 08:50:00,77.9,69.3,30.04,SSW,198,9.0,10.0,75,0.00,,,0.00,Wunderground v.1.15,2013-07-18 13:50:00,
2013-07-18 09:00:00,79.0,69.6,30.04,SSW,193,7.0,8.0,73,0.00,,,0.00,Wunderground v.1.15,2013-07-18 14:00:00,
2013-07-18 09:10:00,79.7,69.5,30.04,SSW,203,8.0,9.0,71,0.00,,,0.00,Wunderground v.1.15,2013-07-18 14:10:00,
2013-07-18 09:20:00,80.2,69.9,30.03,WSW,240,8.0,8.0,71,0.00,,,0.00,Wunderground v.1.15,2013-07-18 14:20:00,
2013-07-18 09:30:00,81.1,70.0,30.03,SW,224,7.0,9.0,69,0.00,,,0.00,Wunderground v.1.15,2013-07-18 14:30:00,
2013-07-18 09:40:00,81.9,69.9,30.02,SW,217,8.0,9.0,67,0.00,,,0.00,Wunderground v.1.15,2013-07-18 14:40:00,
2013-07-18 09:50:00,82.5,69.5,30.01,SW,222,9.0,9.0,65,0.00,,,0.00,Wunderground v.1.15,2013-07-18 14:50:00,
2013-07-18 10:00:00,83.5,69.6,30.02,SSW,205,9.0,12.0,63,0.00,,,0.00,Wunderground v.1.15,2013-07-18 15:00:00,
2013-07-18 10:10:00,84.0,69.6,30.01,SSW,197,8.0,8.0,62,0.00,,,0.00,Wunderground v.1.15,2013-07-18 15:10:00,
2013-07-18 10:20:00,84.4,69.5,30.01,SSW,208,8.0,18.0,61,0.00,,,0.00,Wunderground v.1.15,2013-07-18 15:20:00,
2013-07-18 10:30:00,84.7,69.3,30.01,SSE,153,9.0,9.0,60,0.00,,,0.00,Wunderground v.1.15,2013-07-18 15:30:00,
2013-07-18 10:40:00,85.4,68.4,30.00,SW,231,10.0,10.0,57,0.00,,,0.00,Wunderground v.1.15,2013-07-18 15:40:00,
2013-07-18 10:50:00,85.8,68.8,30.00,SSW,203,10.0,10.0,57,0.00,,,0.00,Wunderground v.1.15,2013-07-18 15:50:00,
2013-07-18 11:00:00,86.3,68.2,30.00,South,191,9.0,15.0,55,0.00,,,0.00,Wunderground v.1.15,2013-07-18 16:00:00,
2013-07-18 11:10:00,86.1,68.6,30.00,SSE,160,9.0,13.0,56,0.00,,,0.00,Wunderground v.1.15,2013-07-18 16:10:00,
2013-07-18 11:20:00,87.5,68.3,29.99,SW,215,7.0,7.0,53,0.00,,,0.00,Wunderground v.1.15,2013-07-18 16:20:00,
2013-07-18 11:30:00,87.3,68.1,29.99,SSE,162,8.0,8.0,53,0.00,,,0.00,Wunderground v.1.15,2013-07-18 16:30:00,
2013-07-18 11:40:00,88.7,68.8,29.98,SE,134,9.0,11.0,52,0.00,,,0.00,Wunderground v.1.15,2013-07-18 16:40:00,
2013-07-18 11:50:00,88.3,69.0,29.98,SW,229,9.0,9.0,53,0.00,,,0.00,Wunderground v.1.15,2013-07-18 16:50:00,
2013-07-18 12:00:00,89.0,67.9,29.98,SW,225,10.0,10.0,50,0.00,,,0.00,Wunderground v.1.15,2013-07-18 17:00:00,
2013-07-18 12:10:00,89.4,68.3,29.98,South,184,10.0,10.0,50,0.00,,,0.00,Wunderground v.1.15,2013-07-18 17:10:00,
2013-07-18 12:20:00,90.5,69.3,29.97,South,188,12.0,13.0,50,0.00,,,0.00,Wunderground v.1.15,2013-07-18 17:20:00,
2013-07-18 12:30:00,89.8,67.5,29.97,SSW,208,13.0,13.0,48,0.00,,,0.00,Wunderground v.1.15,2013-07-18 17:30:00,
2013-07-18 12:40:00,90.2,67.9,29.96,South,188,10.0,11.0,48,0.00,,,0.00,Wunderground v.1.15,2013-07-18 17:40:00,
2013-07-18 12:50:00,91.0,67.3,29.96,South,187,12.0,12.0,46,0.00,,,0.00,Wunderground v.1.15,2013-07-18 17:50:00,
2013-07-18 13:00:00,90.8,67.2,29.95,SSE,160,12.0,13.0,46,0.00,,,0.00,Wunderground v.1.15,2013-07-18 18:00:00,
2013-07-18 13:10:00,91.5,67.2,29.95,SSE,165,12.0,12.0,45,0.00,,,0.00,Wunderground v.1.15,2013-07-18 18:10:00,
2013-07-18 13:20:00,92.0,66.3,29.95,South,174,11.0,11.0,43,0.00,,,0.00,Wunderground v.1.15,2013-07-18 18:20:00,
2013-07-18 13:30:00,91.9,66.9,29.94,South,180,12.0,14.0,44,0.00,,,0.00,Wunderground v.1.15,2013-07-18 18:30:00,
2013-07-18 13:40:00,92.3,67.2,29.94,SE,141,13.0,13.0,44,0.00,,,0.00,Wunderground v.1.15,2013-07-18 18:40:00,
2013-07-18 13:50:00,92.6,66.2,29.94,South,190,12.0,12.0,42,0.00,,,0.00,Wunderground v.1.15,2013-07-18 18:50:00,
2013-07-18 14:00:00,92.3,66.6,29.93,SSE,155,12.0,14.0,43,0.00,,,0.00,Wunderground v.1.15,2013-07-18 19:00:00,
2013-07-18 14:10:00,91.8,66.1,29.92,SE,136,12.0,18.0,43,0.00,,,0.00,Wunderground v.1.15,2013-07-18 19:10:00,
2013-07-18 14:20:00,92.8,66.3,29.92,SSE,163,12.0,13.0,42,0.00,,,0.00,Wunderground v.1.15,2013-07-18 19:20:00,
2013-07-18 14:30:00,93.3,66.1,29.91,South,184,12.0,17.0,41,0.00,,,0.00,Wunderground v.1.15,2013-07-18 19:30:00,
2013-07-18 14:40:00,93.7,65.0,29.91,SSW,198,13.0,13.0,39,0.00,,,0.00,Wunderground v.1.15,2013-07-18 19:40:00,
2013-07-18 14:50:00,93.3,65.4,29.91,SE,141,14.0,15.0,40,0.00,,,0.00,Wunderground v.1.15,2013-07-18 19:50:00,
2013-07-18 15:00:00,93.6,66.4,29.91,South,187,13.0,13.0,41,0.00,,,0.00,Wunderground v.1.15,2013-07-18 20:00:00,
2013-07-18 15:10:00,93.9,64.4,29.90,SSW,195,13.0,15.0,38,0.00,,,0.00,Wunderground v.1.15,2013-07-18 20:10:00,
2013-07-18 15:20:00,94.3,65.5,29.90,SSE,149,12.0,12.0,39,0.00,,,0.00,Wunderground v.1.15,2013-07-18 20:20:00,
2013-07-18 15:30:00,94.7,65.1,29.90,SSE,155,12.0,14.0,38,0.00,,,0.00,Wunderground v.1.15,2013-07-18 20:30:00,
2013-07-18 15:40:00,94.8,64.5,29.89,South,191,12.0,14.0,37,0.00,,,0.00,Wunderground v.1.15,2013-07-18 20:40:00,
2013-07-18 15:50:00,94.7,64.4,29.88,South,191,14.0,14.0,37,0.00,,,0.00,Wunderground v.1.15,2013-07-18 20:50:00,
2013-07-18 16:00:00,94.9,65.3,29.88,SSE,153,13.0,13.0,38,0.00,,,0.00,Wunderground v.1.15,2013-07-18 21:00:00,
2013-07-18 16:10:00,95.2,64.0,29.88,SSE,156,13.0,13.0,36,0.00,,,0.00,Wunderground v.1.15,2013-07-18 21:10:00,
2013-07-18 16:20:00,94.8,64.5,29.87,SSE,149,14.0,18.0,37,0.00,,,0.00,Wunderground v.1.15,2013-07-18 21:20:00,
2013-07-18 16:30:00,95.0,63.9,29.87,SSE,160,13.0,16.0,36,0.00,,,0.00,Wunderground v.1.15,2013-07-18 21:30:00,
2013-07-18 16:40:00,95.1,63.1,29.87,SSW,194,12.0,22.0,35,0.00,,,0.00,Wunderground v.1.15,2013-07-18 21:40:00,
2013-07-18 16:50:00,95.6,63.6,29.86,SSE,159,13.0,13.0,35,0.00,,,0.00,Wunderground v.1.15,2013-07-18 21:50:00,
2013-07-18 17:00:00,95.9,63.0,29.86,SSE,165,11.0,12.0,34,0.00,,,0.00,Wunderground v.1.15,2013-07-18 22:00:00,
2013-07-18 17:10:00,95.6,62.8,29.85,SW,224,10.0,14.0,34,0.00,,,0.00,Wunderground v.1.15,2013-07-18 22:10:00,
2013-07-18 17:20:00,95.2,63.2,29.85,SSE,162,12.0,12.0,35,0.00,,,0.00,Wunderground v.1.15,2013-07-18 22:20:00,
2013-07-18 17:30:00,95.0,63.1,29.85,SSW,197,12.0,12.0,35,0.00,,,0.00,Wunderground v.1.15,2013-07-18 22:30:00,
2013-07-18 17:40:00,95.2,63.2,29.84,SSE,166,12.0,12.0,35,0.00,,,0.00,Wunderground v.1.15,2013-07-18 22:40:00,
2013-07-18 17:50:00,94.8,63.7,29.84,South,169,11.0,17.0,36,0.00,,,0.00,Wunderground v.1.15,2013-07-18 22:50:00,
2013-07-18 18:00:00,94.4,64.1,29.84,SE,138,14.0,17.0,37,0.00,,,0.00,Wunderground v.1.15,2013-07-18 23:00:00,
2013-07-18 18:10:00,94.2,63.9,29.83,SSE,153,14.0,14.0,37,0.00,,,0.00,Wunderground v.1.15,2013-07-18 23:10:00,
2013-07-18 18:20:00,93.9,64.4,29.83,SSW,207,12.0,13.0,38,0.00,,,0.00,Wunderground v.1.15,2013-07-18 23:20:00,
2013-07-18 18:30:00,93.8,65.1,29.83,SE,134,13.0,17.0,39,0.00,,,0.00,Wunderground v.1.15,2013-07-18 23:30:00,
2013-07-18 18:40:00,93.7,64.3,29.83,SW,226,12.0,12.0,38,0.00,,,0.00,Wunderground v.1.15,2013-07-18 23:40:00,
2013-07-18 18:50:00,93.7,65.0,29.83,South,180,11.0,11.0,39,0.00,,,0.00,Wunderground v.1.15,2013-07-18 23:50:00,
2013-07-18 19:00:00,93.8,63.6,29.82,SSE,166,12.0,12.0,37,0.00,,,0.00,Wunderground v.1.15,2013-07-19 00:00:00,
2013-07-18 19:10:00,93.3,63.9,29.82,SSW,194,12.0,12.0,38,0.00,,,0.00,Wunderground v.1.15,2013-07-19 00:10:00,
2013-07-18 19:20:00,93.0,63.6,29.82,South,170,12.0,12.0,38,0.00,,,0.00,Wunderground v.1.15,2013-07-19 00:20:00,
2013-07-18 19:30:00,92.8,64.2,29.82,SSW,200,11.0,11.0,39,0.00,,,0.00,Wunderground v.1.15,2013-07-19 00:30:00,
2013-07-18 19:40:00,92.5,63.9,29.82,SSE,158,11.0,14.0,39,0.00,,,0.00,Wunderground v.1.15,2013-07-19 00:40:00,
2013-07-18 19:50:00,92.0,64.2,29.82,South,174,11.0,13.0,40,0.00,,,0.00,Wunderground v.1.15,2013-07-19 00:50:00,
2013-07-18 20:00:00,91.7,64.0,29.82,SSW,204,10.0,10.0,40,0.00,,,0.00,Wunderground v.1.15,2013-07-19 01:00:00,
2013-07-18 20:10:00,91.3,63.6,29.82,SSW,197,9.0,12.0,40,0.00,,,0.00,Wunderground v.1.15,2013-07-19 01:10:00,
2013-07-18 20:20:00,90.8,63.9,29.82,SSE,163,11.0,11.0,41,0.00,,,0.00,Wunderground v.1.15,2013-07-19 01:20:00,
2013-07-18 20:30:00,90.2,64.0,29.82,SE,144,11.0,11.0,42,0.00,,,0.00,Wunderground v.1.15,2013-07-19 01:30:00,